sensor_id;sensor_type;location;lat;lon;timestamp;pressure;altitude;pressure_sealevel;temperature;humidity
18918;BME280;9591;52.742;13.650;2022-12-20T00:00:06;101371.97;;;3.77;100.00
18918;BME280;9591;52.742;13.650;2022-12-20T00:02:55;101363.25;;;3.82;100.00
18918;BME280;9591;52.742;13.650;2022-12-20T00:05:42;101365.91;;;3.88;100.00
18918;BME280;9591;52.742;13.650;2022-12-20T00:08:29;101361.53;;;3.87;100.00
18918;BME280;9591;52.742;13.650;2022-12-20T00:11:16;101359.84;;;3.95;100.00
18918;BME280;9591;52.742;13.650;2022-12-20T00:14:03;101363.31;;;3.91;100.00
18918;BME280;9591;52.742;13.650;2022-12-20T00:16:50;101363.34;;;3.96;100.00
18918;BME280;9591;52.742;13.650;2022-12-20T00:19:39;101371.19;;;3.94;100.00
18918;BME280;9591;52.742;13.650;2022-12-20T00:22:26;101370.34;;;3.97;100.00
18918;BME280;9591;52.742;13.650;2022-12-20T00:25:13;101363.38;;;4.02;100.00
18918;BME280;9591;52.742;13.650;2022-12-20T00:28:00;101352.84;;;3.94;100.00
18918;BME280;9591;52.742;13.650;2022-12-20T00:30:52;101365.13;;;4.03;100.00
18918;BME280;9591;52.742;13.650;2022-12-20T00:33:40;101353.75;;;4.00;100.00
18918;BME280;9591;52.742;13.650;2022-12-20T00:36:29;101352.84;;;3.96;100.00
18918;BME280;9591;52.742;13.650;2022-12-20T00:39:17;101352.81;;;3.90;100.00
18918;BME280;9591;52.742;13.650;2022-12-20T00:42:03;101334.47;;;3.91;100.00
18918;BME280;9591;52.742;13.650;2022-12-20T00:44:51;101335.38;;;3.97;100.00
18918;BME280;9591;52.742;13.650;2022-12-20T00:47:37;101345.00;;;3.98;100.00
18918;BME280;9591;52.742;13.650;2022-12-20T00:50:24;101352.84;;;3.93;100.00
18918;BME280;9591;52.742;13.650;2022-12-20T00:53:13;101353.75;;;4.00;100.00
18918;BME280;9591;52.742;13.650;2022-12-20T00:56:07;101356.34;;;3.95;100.00
18918;BME280;9591;52.742;13.650;2022-12-20T00:58:56;101350.22;;;3.91;100.00
18918;BME280;9591;52.742;13.650;2022-12-20T01:01:44;101345.03;;;4.05;100.00
18918;BME280;9591;52.742;13.650;2022-12-20T01:04:32;101348.50;;;4.03;100.00
18918;BME280;9591;52.742;13.650;2022-12-20T01:07:19;101349.41;;;4.03;100.00
18918;BME280;9591;52.742;13.650;2022-12-20T01:10:10;101350.25;;;3.99;100.00
18918;BME280;9591;52.742;13.650;2022-12-20T01:12:57;101348.47;;;3.97;100.00
18918;BME280;9591;52.742;13.650;2022-12-20T01:15:45;101351.16;;;4.06;100.00
18918;BME280;9591;52.742;13.650;2022-12-20T01:18:32;101274.91;;;3.54;100.00
18918;BME280;9591;52.742;13.650;2022-12-20T01:21:20;101338.84;;;3.89;100.00
18918;BME280;9591;52.742;13.650;2022-12-20T01:24:07;101340.69;;;4.12;100.00
18918;BME280;9591;52.742;13.650;2022-12-20T01:26:55;101329.34;;;4.14;100.00
18918;BME280;9591;52.742;13.650;2022-12-20T01:29:42;101331.03;;;3.99;100.00
18918;BME280;9591;52.742;13.650;2022-12-20T01:32:30;101331.94;;;4.05;100.00
18918;BME280;9591;52.742;13.650;2022-12-20T01:35:17;101336.31;;;4.11;100.00
18918;BME280;9591;52.742;13.650;2022-12-20T01:38:04;101341.53;;;4.08;100.00
18918;BME280;9591;52.742;13.650;2022-12-20T01:40:52;101336.31;;;4.11;100.00
18918;BME280;9591;52.742;13.650;2022-12-20T01:43:52;101334.59;;;4.19;100.00
18918;BME280;9591;52.742;13.650;2022-12-20T01:46:39;101336.38;;;4.26;100.00
18918;BME280;9591;52.742;13.650;2022-12-20T01:49:29;101318.91;;;4.30;100.00
18918;BME280;9591;52.742;13.650;2022-12-20T01:52:19;101322.38;;;4.39;100.00
18918;BME280;9591;52.742;13.650;2022-12-20T01:55:11;101329.38;;;4.37;100.00
18918;BME280;9591;52.742;13.650;2022-12-20T01:58:01;101313.63;;;4.36;100.00
18918;BME280;9591;52.742;13.650;2022-12-20T02:00:50;101323.28;;;4.41;100.00
18918;BME280;9591;52.742;13.650;2022-12-20T02:03:37;101314.50;;;4.35;100.00
18918;BME280;9591;52.742;13.650;2022-12-20T02:06:26;101322.41;;;4.32;100.00
18918;BME280;9591;52.742;13.650;2022-12-20T02:09:13;101314.50;;;4.35;100.00
18918;BME280;9591;52.742;13.650;2022-12-20T02:12:07;101317.13;;;4.35;100.00
18918;BME280;9591;52.742;13.650;2022-12-20T02:15:04;101316.28;;;4.31;100.00
18918;BME280;9591;52.742;13.650;2022-12-20T02:18:02;101317.16;;;4.27;100.00
18918;BME280;9591;52.742;13.650;2022-12-20T02:21:10;101328.50;;;4.29;100.00
18918;BME280;9591;52.742;13.650;2022-12-20T02:27:42;101323.25;;;4.24;100.00
18918;BME280;9591;52.742;13.650;2022-12-20T02:30:36;101321.50;;;4.20;100.00
18918;BME280;9591;52.742;13.650;2022-12-20T02:33:26;101314.50;;;4.21;100.00
18918;BME280;9591;52.742;13.650;2022-12-20T02:36:15;101318.81;;;4.07;100.00
18918;BME280;9591;52.742;13.650;2022-12-20T02:39:03;101311.84;;;4.15;100.00
18918;BME280;9591;52.742;13.650;2022-12-20T02:41:54;101311.88;;;4.18;100.00
18918;BME280;9591;52.742;13.650;2022-12-20T02:44:44;101314.47;;;4.15;100.00
18918;BME280;9591;52.742;13.650;2022-12-20T02:47:55;101309.28;;;4.25;100.00
18918;BME280;9591;52.742;13.650;2022-12-20T02:50:48;101304.06;;;4.33;100.00
18918;BME280;9591;52.742;13.650;2022-12-20T02:53:37;101301.41;;;4.21;100.00
18918;BME280;9591;52.742;13.650;2022-12-20T02:56:32;101296.16;;;4.24;100.00
18918;BME280;9591;52.742;13.650;2022-12-20T02:59:22;101280.44;;;4.32;100.00
18918;BME280;9591;52.742;13.650;2022-12-20T03:02:12;101276.06;;;4.44;100.00
18918;BME280;9591;52.742;13.650;2022-12-20T03:05:01;101271.69;;;4.51;100.00
18918;BME280;9591;52.742;13.650;2022-12-20T03:07:48;101271.69;;;4.52;100.00
18918;BME280;9591;52.742;13.650;2022-12-20T03:10:38;101268.22;;;4.59;100.00
18918;BME280;9591;52.742;13.650;2022-12-20T03:13:27;101258.59;;;4.71;100.00
18918;BME280;9591;52.742;13.650;2022-12-20T03:16:18;101251.59;;;4.62;100.00
18918;BME280;9591;52.742;13.650;2022-12-20T03:19:06;101248.97;;;4.56;100.00
18918;BME280;9591;52.742;13.650;2022-12-20T03:21:54;101254.22;;;4.54;100.00
18918;BME280;9591;52.742;13.650;2022-12-20T03:24:43;101255.09;;;4.70;100.00
18918;BME280;9591;52.742;13.650;2022-12-20T03:27:30;101263.84;;;4.68;100.00
18918;BME280;9591;52.742;13.650;2022-12-20T03:30:19;101252.47;;;4.79;100.00
18918;BME280;9591;52.742;13.650;2022-12-20T03:33:07;101260.34;;;4.73;100.00
18918;BME280;9591;52.742;13.650;2022-12-20T03:35:58;101275.22;;;4.79;100.00
18918;BME280;9591;52.742;13.650;2022-12-20T03:38:48;101269.97;;;4.79;100.00
18918;BME280;9591;52.742;13.650;2022-12-20T03:41:34;101269.09;;;4.74;100.00
18918;BME280;9591;52.742;13.650;2022-12-20T03:44:22;101273.47;;;4.67;100.00
18918;BME280;9591;52.742;13.650;2022-12-20T03:47:12;101270.84;;;4.70;100.00
18918;BME280;9591;52.742;13.650;2022-12-20T03:49:59;101258.59;;;4.58;100.00
18918;BME280;9591;52.742;13.650;2022-12-20T03:52:51;101274.31;;;4.55;100.00
18918;BME280;9591;52.742;13.650;2022-12-20T03:55:39;101278.72;;;4.67;100.00
18918;BME280;9591;52.742;13.650;2022-12-20T03:58:31;101272.59;;;4.65;100.00
18918;BME280;9591;52.742;13.650;2022-12-20T04:01:20;101220.09;;;4.41;100.00
18918;BME280;9591;52.742;13.650;2022-12-20T04:04:11;101267.34;;;4.76;100.00
18918;BME280;9591;52.742;13.650;2022-12-20T04:06:59;101147.53;;;3.97;100.00
18918;BME280;9591;52.742;13.650;2022-12-20T04:09:45;101265.59;;;4.69;100.00
18918;BME280;9591;52.742;13.650;2022-12-20T04:12:34;101266.47;;;4.71;100.00
18918;BME280;9591;52.742;13.650;2022-12-20T04:15:25;101272.59;;;4.68;100.00
18918;BME280;9591;52.742;13.650;2022-12-20T04:18:12;101280.47;;;4.68;100.00
18918;BME280;9591;52.742;13.650;2022-12-20T04:21:00;101276.94;;;4.49;100.00
18918;BME280;9591;52.742;13.650;2022-12-20T04:23:50;101283.06;;;4.54;100.00
18918;BME280;9591;52.742;13.650;2022-12-20T04:26:38;101281.28;;;4.38;100.00
18918;BME280;9591;52.742;13.650;2022-12-20T04:29:27;101265.56;;;4.38;100.00
18918;BME280;9591;52.742;13.650;2022-12-20T04:32:15;101262.94;;;4.38;100.00
18918;BME280;9591;52.742;13.650;2022-12-20T04:35:02;101258.56;;;4.45;100.00
18918;BME280;9591;52.742;13.650;2022-12-20T04:37:55;101246.31;;;4.38;100.00
18918;BME280;9591;52.742;13.650;2022-12-20T04:40:42;101244.56;;;4.34;100.00
18918;BME280;9591;52.742;13.650;2022-12-20T04:43:29;101243.72;;;4.39;100.00
18918;BME280;9591;52.742;13.650;2022-12-20T04:46:19;101238.47;;;4.39;100.00
18918;BME280;9591;52.742;13.650;2022-12-20T04:49:07;101248.06;;;4.34;100.00
18918;BME280;9591;52.742;13.650;2022-12-20T04:51:57;101253.31;;;4.42;100.00
18918;BME280;9591;52.742;13.650;2022-12-20T04:55:05;101242.84;;;4.39;100.00
18918;BME280;9591;52.742;13.650;2022-12-20T04:57:52;101238.47;;;4.38;100.00
18918;BME280;9591;52.742;13.650;2022-12-20T05:00:39;101234.97;;;4.31;100.00
18918;BME280;9591;52.742;13.650;2022-12-20T05:03:40;101234.09;;;4.23;100.00
18918;BME280;9591;52.742;13.650;2022-12-20T05:06:27;101225.34;;;4.39;100.00
18918;BME280;9591;52.742;13.650;2022-12-20T05:09:14;101246.31;;;4.38;100.00
18918;BME280;9591;52.742;13.650;2022-12-20T05:12:01;101235.84;;;4.35;100.00
18918;BME280;9591;52.742;13.650;2022-12-20T05:14:48;101231.47;;;4.37;100.00
18918;BME280;9591;52.742;13.650;2022-12-20T05:17:39;101236.72;;;4.41;100.00
18918;BME280;9591;52.742;13.650;2022-12-20T05:20:28;101234.97;;;4.31;100.00
18918;BME280;9591;52.742;13.650;2022-12-20T05:23:19;101242.84;;;4.31;100.00
18918;BME280;9591;52.742;13.650;2022-12-20T05:26:41;101239.34;;;4.17;100.00
18918;BME280;9591;52.742;13.650;2022-12-20T05:29:27;101241.09;;;4.25;100.00
18918;BME280;9591;52.742;13.650;2022-12-20T05:32:15;101248.97;;;4.27;100.00
18918;BME280;9591;52.742;13.650;2022-12-20T05:35:02;101242.81;;;4.34;100.00
18918;BME280;9591;52.742;13.650;2022-12-20T05:37:51;101233.22;;;4.30;100.00
18918;BME280;9591;52.742;13.650;2022-12-20T05:40:39;101229.72;;;4.37;100.00
18918;BME280;9591;52.742;13.650;2022-12-20T05:43:27;101223.63;;;4.32;100.00
18918;BME280;9591;52.742;13.650;2022-12-20T05:46:14;101213.97;;;4.34;100.00
18918;BME280;9591;52.742;13.650;2022-12-20T05:49:15;101226.25;;;4.29;100.00
18918;BME280;9591;52.742;13.650;2022-12-20T05:52:03;101234.09;;;4.41;100.00
18918;BME280;9591;52.742;13.650;2022-12-20T05:54:53;101228.84;;;4.41;100.00
18918;BME280;9591;52.742;13.650;2022-12-20T05:57:42;101223.59;;;4.44;100.00
18918;BME280;9591;52.742;13.650;2022-12-20T06:00:30;101220.97;;;4.47;100.00
18918;BME280;9591;52.742;13.650;2022-12-20T06:03:19;101213.13;;;4.52;100.00
18918;BME280;9591;52.742;13.650;2022-12-20T06:06:08;101214.88;;;4.70;100.00
18918;BME280;9591;52.742;13.650;2022-12-20T06:09:00;101178.13;;;4.35;100.00
18918;BME280;9591;52.742;13.650;2022-12-20T06:12:01;101245.47;;;4.83;100.00
18918;BME280;9591;52.742;13.650;2022-12-20T06:14:51;101232.34;;;4.89;100.00
18918;BME280;9591;52.742;13.650;2022-12-20T06:17:37;101226.22;;;4.78;100.00
18918;BME280;9591;52.742;13.650;2022-12-20T06:20:24;101222.72;;;4.88;100.00
18918;BME280;9591;52.742;13.650;2022-12-20T06:23:11;101228.84;;;4.85;100.00
18918;BME280;9591;52.742;13.650;2022-12-20T06:26:05;101234.09;;;4.84;100.00
18918;BME280;9591;52.742;13.650;2022-12-20T06:29:04;101250.72;;;4.86;100.00
18918;BME280;9591;52.742;13.650;2022-12-20T06:31:56;101211.38;;;4.60;100.00
18918;BME280;9591;52.742;13.650;2022-12-20T06:34:44;101259.47;;;4.96;100.00
18918;BME280;9591;52.742;13.650;2022-12-20T06:37:32;101264.72;;;4.89;100.00
18918;BME280;9591;52.742;13.650;2022-12-20T06:40:19;101263.84;;;4.89;100.00
18918;BME280;9591;52.742;13.650;2022-12-20T06:43:06;101264.72;;;4.94;100.00
18918;BME280;9591;52.742;13.650;2022-12-20T06:45:54;101259.47;;;4.86;100.00
18918;BME280;9591;52.742;13.650;2022-12-20T06:48:41;101256.84;;;4.85;100.00
18918;BME280;9591;52.742;13.650;2022-12-20T06:51:29;101251.59;;;4.89;100.00
18918;BME280;9591;52.742;13.650;2022-12-20T06:54:17;101243.72;;;4.91;100.00
18918;BME280;9591;52.742;13.650;2022-12-20T06:57:04;101248.97;;;4.96;100.00
18918;BME280;9591;52.742;13.650;2022-12-20T06:59:51;101246.34;;;4.96;100.00
18918;BME280;9591;52.742;13.650;2022-12-20T07:02:40;101248.09;;;4.89;100.00
18918;BME280;9591;52.742;13.650;2022-12-20T07:05:27;101251.59;;;4.97;100.00
18918;BME280;9591;52.742;13.650;2022-12-20T07:08:14;101262.97;;;5.07;100.00
18918;BME280;9591;52.742;13.650;2022-12-20T07:11:05;101259.47;;;4.97;100.00
18918;BME280;9591;52.742;13.650;2022-12-20T07:13:54;101255.09;;;4.91;100.00
18918;BME280;9591;52.742;13.650;2022-12-20T07:16:41;101123.09;;;4.16;100.00
18918;BME280;9591;52.742;13.650;2022-12-20T07:19:30;101255.97;;;4.97;100.00
18918;BME280;9591;52.742;13.650;2022-12-20T07:22:16;101244.59;;;4.99;100.00
18918;BME280;9591;52.742;13.650;2022-12-20T07:25:04;101262.09;;;5.09;100.00
18918;BME280;9591;52.742;13.650;2022-12-20T07:27:51;101269.09;;;5.00;100.00
18918;BME280;9591;52.742;13.650;2022-12-20T07:30:37;101270.84;;;4.96;100.00
18918;BME280;9591;52.742;13.650;2022-12-20T07:33:24;101290.97;;;5.08;100.00
18918;BME280;9591;52.742;13.650;2022-12-20T07:36:13;101299.72;;;5.08;100.00
18918;BME280;9591;52.742;13.650;2022-12-20T07:39:01;101281.34;;;4.99;100.00
18918;BME280;9591;52.742;13.650;2022-12-20T07:41:47;101280.47;;;4.97;100.00
18918;BME280;9591;52.742;13.650;2022-12-20T07:44:34;101281.34;;;5.01;100.00
18918;BME280;9591;52.742;13.650;2022-12-20T07:47:22;101283.09;;;5.05;100.00
18918;BME280;9591;52.742;13.650;2022-12-20T07:50:09;101280.47;;;4.97;100.00
18918;BME280;9591;52.742;13.650;2022-12-20T07:52:58;101279.59;;;5.04;100.00
18918;BME280;9591;52.742;13.650;2022-12-20T07:55:46;101281.34;;;5.02;100.00
18918;BME280;9591;52.742;13.650;2022-12-20T07:58:34;101282.22;;;5.09;100.00
18918;BME280;9591;52.742;13.650;2022-12-20T08:01:23;101283.97;;;5.11;100.00
18918;BME280;9591;52.742;13.650;2022-12-20T08:04:13;101241.09;;;4.86;100.00
18918;BME280;9591;52.742;13.650;2022-12-20T08:07:01;101273.44;;;5.14;100.00
18918;BME280;9591;52.742;13.650;2022-12-20T08:09:50;101272.56;;;5.14;100.00
18918;BME280;9591;52.742;13.650;2022-12-20T08:12:38;101276.94;;;5.16;100.00
18918;BME280;9591;52.742;13.650;2022-12-20T08:15:27;101269.91;;;5.21;100.00
18918;BME280;9591;52.742;13.650;2022-12-20T08:18:14;101277.81;;;5.20;100.00
18918;BME280;9591;52.742;13.650;2022-12-20T08:21:02;101269.94;;;5.20;100.00
18918;BME280;9591;52.742;13.650;2022-12-20T08:23:48;101271.66;;;5.22;100.00
18918;BME280;9591;52.742;13.650;2022-12-20T08:26:37;101278.66;;;5.26;100.00
18918;BME280;9591;52.742;13.650;2022-12-20T08:29:24;101277.78;;;5.29;100.00
18918;BME280;9591;52.742;13.650;2022-12-20T08:32:11;101275.16;;;5.24;100.00
18918;BME280;9591;52.742;13.650;2022-12-20T08:34:58;101262.88;;;5.31;100.00
18918;BME280;9591;52.742;13.650;2022-12-20T08:37:45;101274.25;;;5.39;100.00
18918;BME280;9591;52.742;13.650;2022-12-20T08:40:32;101276.91;;;5.28;100.00
18918;BME280;9591;52.742;13.650;2022-12-20T08:43:21;101276.00;;;5.39;100.00
18918;BME280;9591;52.742;13.650;2022-12-20T08:46:09;101281.28;;;5.33;100.00
18918;BME280;9591;52.742;13.650;2022-12-20T08:48:56;101278.63;;;5.33;100.00
18918;BME280;9591;52.742;13.650;2022-12-20T08:51:43;101279.50;;;5.36;100.00
18918;BME280;9591;52.742;13.650;2022-12-20T08:54:30;101279.50;;;5.38;100.00
18918;BME280;9591;52.742;13.650;2022-12-20T08:57:17;101274.25;;;5.39;100.00
18918;BME280;9591;52.742;13.650;2022-12-20T09:00:07;101260.25;;;5.33;100.00
18918;BME280;9591;52.742;13.650;2022-12-20T09:02:54;101261.13;;;5.32;100.00
18918;BME280;9591;52.742;13.650;2022-12-20T09:05:45;101263.72;;;5.50;100.00
18918;BME280;9591;52.742;13.650;2022-12-20T09:08:32;101245.34;;;5.47;100.00
18918;BME280;9591;52.742;13.650;2022-12-20T09:11:21;101264.59;;;5.47;100.00
18918;BME280;9591;52.742;13.650;2022-12-20T09:14:08;101250.59;;;5.48;100.00
18918;BME280;9591;52.742;13.650;2022-12-20T09:16:56;101253.19;;;5.57;100.00
18918;BME280;9591;52.742;13.650;2022-12-20T09:19:43;101259.31;;;5.55;100.00
18918;BME280;9591;52.742;13.650;2022-12-20T09:22:30;101255.81;;;5.60;100.00
18918;BME280;9591;52.742;13.650;2022-12-20T09:25:17;101246.13;;;5.70;100.00
18918;BME280;9591;52.742;13.650;2022-12-20T09:28:04;101254.00;;;5.73;100.00
18918;BME280;9591;52.742;13.650;2022-12-20T09:30:51;101254.00;;;5.76;100.00
18918;BME280;9591;52.742;13.650;2022-12-20T09:33:39;101249.59;;;5.89;100.00
18918;BME280;9591;52.742;13.650;2022-12-20T09:36:28;101246.94;;;5.94;100.00
18918;BME280;9591;52.742;13.650;2022-12-20T09:39:14;101253.91;;;6.04;100.00
18918;BME280;9591;52.742;13.650;2022-12-20T09:42:06;101229.28;;;6.08;100.00
18918;BME280;9591;52.742;13.650;2022-12-20T09:44:59;101228.31;;;6.22;100.00
18918;BME280;9591;52.742;13.650;2022-12-20T09:47:47;101222.09;;;6.39;100.00
18918;BME280;9591;52.742;13.650;2022-12-20T09:50:49;101232.56;;;6.43;100.00
18918;BME280;9591;52.742;13.650;2022-12-20T09:53:49;101240.50;;;6.37;100.00
18918;BME280;9591;52.742;13.650;2022-12-20T09:56:42;101243.09;;;6.43;100.00
18918;BME280;9591;52.742;13.650;2022-12-20T09:59:32;101230.91;;;6.32;100.00
18918;BME280;9591;52.742;13.650;2022-12-20T10:02:28;101224.75;;;6.33;100.00
18918;BME280;9591;52.742;13.650;2022-12-20T10:05:41;101230.81;;;6.44;100.00
18918;BME280;9591;52.742;13.650;2022-12-20T10:08:43;101229.88;;;6.51;100.00
18918;BME280;9591;52.742;13.650;2022-12-20T10:11:44;101224.59;;;6.54;100.00
18918;BME280;9591;52.742;13.650;2022-12-20T10:14:50;101216.66;;;6.60;100.00
18918;BME280;9591;52.742;13.650;2022-12-20T10:17:53;101220.91;;;6.75;100.00
18918;BME280;9591;52.742;13.650;2022-12-20T10:20:54;101214.88;;;6.64;100.00
18918;BME280;9591;52.742;13.650;2022-12-20T10:24:00;101220.97;;;6.70;100.00
18918;BME280;9591;52.742;13.650;2022-12-20T10:26:54;101221.72;;;6.84;100.00
18918;BME280;9591;52.742;13.650;2022-12-20T10:29:52;101212.06;;;6.82;100.00
18918;BME280;9591;52.742;13.650;2022-12-20T10:32:47;101210.28;;;6.85;100.00
18918;BME280;9591;52.742;13.650;2022-12-20T10:35:40;101192.75;;;6.84;100.00
18918;BME280;9591;52.742;13.650;2022-12-20T10:38:42;101195.31;;;6.92;100.00
18918;BME280;9591;52.742;13.650;2022-12-20T10:41:45;101192.69;;;6.92;100.00
18918;BME280;9591;52.742;13.650;2022-12-20T10:44:33;101173.34;;;6.93;100.00
18918;BME280;9591;52.742;13.650;2022-12-20T10:47:28;101170.66;;;6.96;100.00
18918;BME280;9591;52.742;13.650;2022-12-20T10:50:18;101118.25;;;6.75;100.00
18918;BME280;9591;52.742;13.650;2022-12-20T10:53:26;101165.34;;;6.99;100.00
18918;BME280;9591;52.742;13.650;2022-12-20T10:56:19;101165.25;;;7.10;100.00
18918;BME280;9591;52.742;13.650;2022-12-20T10:59:24;101149.41;;;7.11;100.00
18918;BME280;9591;52.742;13.650;2022-12-20T11:02:28;101143.13;;;7.23;100.00
18918;BME280;9591;52.742;13.650;2022-12-20T11:05:25;101141.34;;;7.27;100.00
18918;BME280;9591;52.742;13.650;2022-12-20T11:08:15;101116.69;;;7.32;100.00
18918;BME280;9591;52.742;13.650;2022-12-20T11:11:24;101113.13;;;7.35;100.00
18918;BME280;9591;52.742;13.650;2022-12-20T11:14:13;101117.44;;;7.40;100.00
18918;BME280;9591;52.742;13.650;2022-12-20T11:17:04;101120.94;;;7.42;100.00
18918;BME280;9591;52.742;13.650;2022-12-20T11:20:10;101110.50;;;7.35;100.00
18918;BME280;9591;52.742;13.650;2022-12-20T11:23:13;101114.06;;;7.31;100.00
18918;BME280;9591;52.742;13.650;2022-12-20T11:26:17;101098.06;;;7.46;100.00
18918;BME280;9591;52.742;13.650;2022-12-20T11:29:22;101086.50;;;7.56;100.00
18918;BME280;9591;52.742;13.650;2022-12-20T11:32:20;101076.00;;;7.51;100.00
18918;BME280;9591;52.742;13.650;2022-12-20T11:35:12;101086.50;;;7.56;100.00
18918;BME280;9591;52.742;13.650;2022-12-20T11:38:05;101098.66;;;7.66;100.00
18918;BME280;9591;52.742;13.650;2022-12-20T11:41:07;101103.88;;;7.69;100.00
18918;BME280;9591;52.742;13.650;2022-12-20T11:44:05;101096.72;;;7.79;100.00
18918;BME280;9591;52.742;13.650;2022-12-20T11:47:30;101083.59;;;7.74;100.00
18918;BME280;9591;52.742;13.650;2022-12-20T11:50:35;101082.47;;;7.87;100.00
18918;BME280;9591;52.742;13.650;2022-12-20T11:53:31;101075.56;;;7.80;100.00
18918;BME280;9591;52.742;13.650;2022-12-20T11:56:33;101069.34;;;7.84;100.00
18918;BME280;9591;52.742;13.650;2022-12-20T11:59:34;101067.53;;;7.88;100.00
18918;BME280;9591;52.742;13.650;2022-12-20T12:02:27;101067.66;;;7.80;100.00
18918;BME280;9591;52.742;13.650;2022-12-20T12:05:22;101070.13;;;7.89;100.00
18918;BME280;9591;52.742;13.650;2022-12-20T12:08:15;101078.91;;;7.92;100.00
18918;BME280;9591;52.742;13.650;2022-12-20T12:11:07;101074.38;;;8.00;100.00
18918;BME280;9591;52.742;13.650;2022-12-20T12:14:27;101062.09;;;7.99;100.00
18918;BME280;9591;52.742;13.650;2022-12-20T12:17:21;101064.66;;;8.03;100.00
18918;BME280;9591;52.742;13.650;2022-12-20T12:20:21;101066.47;;;8.00;100.00
18918;BME280;9591;52.742;13.650;2022-12-20T12:23:14;101074.41;;;7.97;100.00
18918;BME280;9591;52.742;13.650;2022-12-20T12:26:08;101073.56;;;7.96;100.00
18918;BME280;9591;52.742;13.650;2022-12-20T12:28:58;101071.75;;;8.00;100.00
18918;BME280;9591;52.742;13.650;2022-12-20T12:31:48;101055.94;;;7.98;100.00
18918;BME280;9591;52.742;13.650;2022-12-20T12:34:50;101060.19;;;8.07;100.00
18918;BME280;9591;52.742;13.650;2022-12-20T12:37:54;101058.41;;;8.09;100.00
18918;BME280;9591;52.742;13.650;2022-12-20T12:41:09;101042.63;;;8.06;100.00
18918;BME280;9591;52.742;13.650;2022-12-20T12:44:21;101039.25;;;7.98;100.00
18918;BME280;9591;52.742;13.650;2022-12-20T12:47:15;101021.66;;;7.97;100.00
18918;BME280;9591;52.742;13.650;2022-12-20T12:50:08;101032.09;;;8.04;100.00
18918;BME280;9591;52.742;13.650;2022-12-20T12:53:05;101028.59;;;8.04;100.00
18918;BME280;9591;52.742;13.650;2022-12-20T12:55:53;101018.88;;;8.06;100.00
18918;BME280;9591;52.742;13.650;2022-12-20T12:59:41;100992.63;;;7.98;100.00
18918;BME280;9591;52.742;13.650;2022-12-20T13:02:34;101014.44;;;8.08;100.00
18918;BME280;9591;52.742;13.650;2022-12-20T13:05:34;101003.00;;;8.09;100.00
18918;BME280;9591;52.742;13.650;2022-12-20T13:08:46;100990.69;;;8.09;100.00
18918;BME280;9591;52.742;13.650;2022-12-20T13:11:35;100989.06;;;8.01;100.00
18918;BME280;9591;52.742;13.650;2022-12-20T13:14:47;100988.06;;;8.08;100.00
18918;BME280;9591;52.742;13.650;2022-12-20T13:17:48;100992.50;;;8.06;100.00
18918;BME280;9591;52.742;13.650;2022-12-20T13:20:36;100996.97;;;8.02;100.00
18918;BME280;9591;52.742;13.650;2022-12-20T13:23:25;100982.00;;;8.03;100.00
18918;BME280;9591;52.742;13.650;2022-12-20T13:26:46;101007.25;;;8.16;100.00
18918;BME280;9591;52.742;13.650;2022-12-20T13:29:35;101004.00;;;8.02;100.00
18918;BME280;9591;52.742;13.650;2022-12-20T13:32:54;100999.69;;;7.96;100.00
18918;BME280;9591;52.742;13.650;2022-12-20T13:35:53;100994.50;;;7.92;100.00
18918;BME280;9591;52.742;13.650;2022-12-20T13:42:16;100993.16;;;7.68;100.00
18918;BME280;9591;52.742;13.650;2022-12-20T13:45:08;101004.72;;;7.59;100.00
18918;BME280;9591;52.742;13.650;2022-12-20T13:48:00;101005.09;;;7.35;100.00
18918;BME280;9591;52.742;13.650;2022-12-20T13:50:56;101004.34;;;7.27;100.00
18918;BME280;9591;52.742;13.650;2022-12-20T13:53:50;101002.63;;;7.22;100.00
18918;BME280;9591;52.742;13.650;2022-12-20T13:56:45;100998.50;;;7.03;100.00
18918;BME280;9591;52.742;13.650;2022-12-20T13:59:35;100995.06;;;6.98;100.00
18918;BME280;9591;52.742;13.650;2022-12-20T14:02:23;100999.72;;;6.79;100.00
18918;BME280;9591;52.742;13.650;2022-12-20T14:05:16;100948.28;;;6.52;100.00
18918;BME280;9591;52.742;13.650;2022-12-20T14:08:07;100997.09;;;6.79;100.00
18918;BME280;9591;52.742;13.650;2022-12-20T14:10:54;100998.03;;;6.74;100.00
18918;BME280;9591;52.742;13.650;2022-12-20T14:13:42;100999.03;;;6.65;100.00
18918;BME280;9591;52.742;13.650;2022-12-20T14:16:31;100991.16;;;6.62;100.00
18918;BME280;9591;52.742;13.650;2022-12-20T14:19:18;100990.22;;;6.68;100.00
18918;BME280;9591;52.742;13.650;2022-12-20T14:22:07;100995.41;;;6.74;100.00
18918;BME280;9591;52.742;13.650;2022-12-20T14:24:56;101000.97;;;6.48;100.00
18918;BME280;9591;52.742;13.650;2022-12-20T14:27:44;100993.09;;;6.48;100.00
18918;BME280;9591;52.742;13.650;2022-12-20T14:30:34;100982.59;;;6.43;100.00
18918;BME280;9591;52.742;13.650;2022-12-20T14:33:32;100973.72;;;6.53;100.00
18918;BME280;9591;52.742;13.650;2022-12-20T14:36:20;100954.38;;;6.56;100.00
18918;BME280;9591;52.742;13.650;2022-12-20T14:39:26;100975.44;;;6.56;100.00
18918;BME280;9591;52.742;13.650;2022-12-20T14:42:18;100973.78;;;6.47;100.00
18918;BME280;9591;52.742;13.650;2022-12-20T14:45:16;100971.97;;;6.52;100.00
18918;BME280;9591;52.742;13.650;2022-12-20T14:48:04;100972.72;;;6.64;100.00
18918;BME280;9591;52.742;13.650;2022-12-20T14:50:54;100967.41;;;6.67;100.00
18918;BME280;9591;52.742;13.650;2022-12-20T14:53:44;100966.53;;;6.68;100.00
18918;BME280;9591;52.742;13.650;2022-12-20T14:56:32;100956.06;;;6.63;100.00
18918;BME280;9591;52.742;13.650;2022-12-20T14:59:22;100944.69;;;6.61;100.00
18918;BME280;9591;52.742;13.650;2022-12-20T15:02:32;100948.94;;;6.71;100.00
18918;BME280;9591;52.742;13.650;2022-12-20T15:05:44;100962.13;;;6.70;100.00